sensor_id;sensor_type;location;lat;lon;timestamp;P1;durP1;ratioP1;P2;durP2;ratioP2
77051;SDS011;65980;44.898;8.602;2023-08-06T00:00:19;3.30;;;0.80;;
77051;SDS011;65980;44.898;8.602;2023-08-06T00:03:23;3.65;;;0.90;;
77051;SDS011;65980;44.898;8.602;2023-08-06T00:06:27;1.13;;;0.90;;
77051;SDS011;65980;44.898;8.602;2023-08-06T00:09:31;1.52;;;0.85;;
77051;SDS011;65980;44.898;8.602;2023-08-06T00:12:35;1.55;;;0.85;;
77051;SDS011;65980;44.898;8.602;2023-08-06T00:15:42;2.08;;;0.98;;
77051;SDS011;65980;44.898;8.602;2023-08-06T00:18:47;1.85;;;1.08;;
77051;SDS011;65980;44.898;8.602;2023-08-06T00:21:51;1.55;;;0.95;;
77051;SDS011;65980;44.898;8.602;2023-08-06T00:24:56;1.75;;;1.10;;
77051;SDS011;65980;44.898;8.602;2023-08-06T00:28:01;2.78;;;1.30;;
77051;SDS011;65980;44.898;8.602;2023-08-06T00:31:05;1.60;;;1.08;;
77051;SDS011;65980;44.898;8.602;2023-08-06T00:34:09;1.42;;;1.00;;
77051;SDS011;65980;44.898;8.602;2023-08-06T00:37:13;2.42;;;1.00;;
77051;SDS011;65980;44.898;8.602;2023-08-06T00:40:19;2.67;;;1.15;;
77051;SDS011;65980;44.898;8.602;2023-08-06T00:43:25;2.45;;;1.20;;
77051;SDS011;65980;44.898;8.602;2023-08-06T00:46:31;10.68;;;1.02;;
77051;SDS011;65980;44.898;8.602;2023-08-06T00:49:37;2.55;;;1.00;;
77051;SDS011;65980;44.898;8.602;2023-08-06T00:52:42;1.33;;;1.08;;
77051;SDS011;65980;44.898;8.602;2023-08-06T00:55:47;2.65;;;1.00;;
77051;SDS011;65980;44.898;8.602;2023-08-06T00:58:51;1.45;;;1.02;;
77051;SDS011;65980;44.898;8.602;2023-08-06T01:01:56;1.92;;;1.20;;
77051;SDS011;65980;44.898;8.602;2023-08-06T01:05:01;3.30;;;1.20;;
77051;SDS011;65980;44.898;8.602;2023-08-06T01:11:31;4.60;;;1.10;;
77051;SDS011;65980;44.898;8.602;2023-08-06T01:19:22;2.17;;;1.30;;
77051;SDS011;65980;44.898;8.602;2023-08-06T01:22:27;2.15;;;1.52;;
77051;SDS011;65980;44.898;8.602;2023-08-06T01:25:41;3.90;;;1.55;;
77051;SDS011;65980;44.898;8.602;2023-08-06T01:32:14;1.65;;;1.08;;
77051;SDS011;65980;44.898;8.602;2023-08-06T01:35:20;1.55;;;1.08;;
77051;SDS011;65980;44.898;8.602;2023-08-06T01:38:26;1.55;;;1.10;;
77051;SDS011;65980;44.898;8.602;2023-08-06T01:41:33;3.72;;;1.30;;
77051;SDS011;65980;44.898;8.602;2023-08-06T01:44:37;2.63;;;1.27;;
77051;SDS011;65980;44.898;8.602;2023-08-06T01:47:42;6.13;;;1.50;;
77051;SDS011;65980;44.898;8.602;2023-08-06T01:50:46;2.10;;;1.20;;
77051;SDS011;65980;44.898;8.602;2023-08-06T01:53:50;1.83;;;1.50;;
77051;SDS011;65980;44.898;8.602;2023-08-06T01:56:56;2.03;;;1.20;;
77051;SDS011;65980;44.898;8.602;2023-08-06T02:00:02;1.27;;;1.10;;
77051;SDS011;65980;44.898;8.602;2023-08-06T02:03:16;2.88;;;1.63;;
77051;SDS011;65980;44.898;8.602;2023-08-06T02:06:20;2.33;;;1.63;;
77051;SDS011;65980;44.898;8.602;2023-08-06T02:09:24;4.03;;;1.48;;
77051;SDS011;65980;44.898;8.602;2023-08-06T02:12:29;2.55;;;1.42;;
77051;SDS011;65980;44.898;8.602;2023-08-06T02:15:33;2.83;;;1.48;;
77051;SDS011;65980;44.898;8.602;2023-08-06T02:18:37;2.33;;;1.42;;
77051;SDS011;65980;44.898;8.602;2023-08-06T02:21:41;2.58;;;1.30;;
77051;SDS011;65980;44.898;8.602;2023-08-06T02:24:45;1.42;;;1.20;;
77051;SDS011;65980;44.898;8.602;2023-08-06T02:27:49;1.80;;;1.40;;
77051;SDS011;65980;44.898;8.602;2023-08-06T02:30:53;2.85;;;1.35;;
77051;SDS011;65980;44.898;8.602;2023-08-06T02:33:57;2.30;;;1.52;;
77051;SDS011;65980;44.898;8.602;2023-08-06T02:37:02;4.50;;;1.35;;
77051;SDS011;65980;44.898;8.602;2023-08-06T02:40:06;2.53;;;1.33;;
77051;SDS011;65980;44.898;8.602;2023-08-06T02:43:11;2.13;;;1.30;;
77051;SDS011;65980;44.898;8.602;2023-08-06T02:46:16;2.28;;;1.25;;
77051;SDS011;65980;44.898;8.602;2023-08-06T02:49:21;1.83;;;1.25;;
77051;SDS011;65980;44.898;8.602;2023-08-06T02:52:26;2.17;;;1.30;;
77051;SDS011;65980;44.898;8.602;2023-08-06T02:55:31;4.38;;;1.60;;
77051;SDS011;65980;44.898;8.602;2023-08-06T02:58:36;2.50;;;1.33;;
77051;SDS011;65980;44.898;8.602;2023-08-06T03:01:59;2.90;;;1.58;;
77051;SDS011;65980;44.898;8.602;2023-08-06T03:05:13;3.65;;;1.40;;
77051;SDS011;65980;44.898;8.602;2023-08-06T03:08:21;2.00;;;1.17;;
77051;SDS011;65980;44.898;8.602;2023-08-06T03:11:28;1.92;;;1.60;;
77051;SDS011;65980;44.898;8.602;2023-08-06T03:14:38;2.05;;;1.40;;
77051;SDS011;65980;44.898;8.602;2023-08-06T03:17:44;3.72;;;1.50;;
77051;SDS011;65980;44.898;8.602;2023-08-06T03:20:53;2.35;;;1.30;;
77051;SDS011;65980;44.898;8.602;2023-08-06T03:23:58;1.30;;;1.17;;
77051;SDS011;65980;44.898;8.602;2023-08-06T03:27:05;3.25;;;1.50;;
77051;SDS011;65980;44.898;8.602;2023-08-06T03:30:10;3.10;;;1.35;;
77051;SDS011;65980;44.898;8.602;2023-08-06T03:33:16;2.08;;;1.20;;
77051;SDS011;65980;44.898;8.602;2023-08-06T03:36:22;3.03;;;1.38;;
77051;SDS011;65980;44.898;8.602;2023-08-06T03:39:27;1.40;;;1.27;;
77051;SDS011;65980;44.898;8.602;2023-08-06T03:42:31;4.20;;;1.45;;
77051;SDS011;65980;44.898;8.602;2023-08-06T03:45:35;3.05;;;1.40;;
77051;SDS011;65980;44.898;8.602;2023-08-06T03:48:41;2.28;;;1.50;;
77051;SDS011;65980;44.898;8.602;2023-08-06T03:51:45;5.75;;;1.90;;
77051;SDS011;65980;44.898;8.602;2023-08-06T03:54:50;2.75;;;1.20;;
77051;SDS011;65980;44.898;8.602;2023-08-06T03:57:54;5.50;;;1.10;;
77051;SDS011;65980;44.898;8.602;2023-08-06T04:00:59;2.22;;;1.30;;
77051;SDS011;65980;44.898;8.602;2023-08-06T04:04:09;3.97;;;1.30;;
77051;SDS011;65980;44.898;8.602;2023-08-06T04:07:13;2.38;;;1.92;;
77051;SDS011;65980;44.898;8.602;2023-08-06T04:10:17;1.90;;;1.38;;
77051;SDS011;65980;44.898;8.602;2023-08-06T04:13:21;2.28;;;1.60;;
77051;SDS011;65980;44.898;8.602;2023-08-06T04:16:25;7.88;;;1.98;;
77051;SDS011;65980;44.898;8.602;2023-08-06T04:19:30;2.35;;;1.27;;
77051;SDS011;65980;44.898;8.602;2023-08-06T04:22:34;2.60;;;1.50;;
77051;SDS011;65980;44.898;8.602;2023-08-06T04:25:38;3.13;;;1.60;;
77051;SDS011;65980;44.898;8.602;2023-08-06T04:28:43;5.47;;;1.40;;
77051;SDS011;65980;44.898;8.602;2023-08-06T04:31:47;8.07;;;1.50;;
77051;SDS011;65980;44.898;8.602;2023-08-06T04:34:52;2.08;;;1.20;;
77051;SDS011;65980;44.898;8.602;2023-08-06T04:38:00;5.00;;;1.65;;
77051;SDS011;65980;44.898;8.602;2023-08-06T04:41:04;3.22;;;1.25;;
77051;SDS011;65980;44.898;8.602;2023-08-06T04:44:10;2.33;;;1.30;;
77051;SDS011;65980;44.898;8.602;2023-08-06T04:47:14;3.10;;;1.27;;
77051;SDS011;65980;44.898;8.602;2023-08-06T04:50:19;1.75;;;1.30;;
77051;SDS011;65980;44.898;8.602;2023-08-06T04:53:24;4.18;;;1.50;;
77051;SDS011;65980;44.898;8.602;2023-08-06T04:56:28;4.30;;;1.48;;
77051;SDS011;65980;44.898;8.602;2023-08-06T04:59:33;4.50;;;1.55;;
77051;SDS011;65980;44.898;8.602;2023-08-06T05:02:37;2.10;;;1.40;;
77051;SDS011;65980;44.898;8.602;2023-08-06T05:05:42;2.10;;;1.38;;
77051;SDS011;65980;44.898;8.602;2023-08-06T05:08:47;4.40;;;1.40;;
77051;SDS011;65980;44.898;8.602;2023-08-06T05:11:52;2.00;;;1.30;;
77051;SDS011;65980;44.898;8.602;2023-08-06T05:14:59;3.45;;;1.40;;
77051;SDS011;65980;44.898;8.602;2023-08-06T05:18:03;2.47;;;1.33;;
77051;SDS011;65980;44.898;8.602;2023-08-06T05:21:08;3.15;;;1.80;;
77051;SDS011;65980;44.898;8.602;2023-08-06T05:24:13;5.78;;;2.72;;
77051;SDS011;65980;44.898;8.602;2023-08-06T05:27:17;10.00;;;2.47;;
77051;SDS011;65980;44.898;8.602;2023-08-06T05:30:24;5.72;;;2.60;;
77051;SDS011;65980;44.898;8.602;2023-08-06T05:33:28;4.07;;;2.42;;
77051;SDS011;65980;44.898;8.602;2023-08-06T05:36:32;3.85;;;2.20;;
77051;SDS011;65980;44.898;8.602;2023-08-06T05:39:36;6.90;;;3.50;;
77051;SDS011;65980;44.898;8.602;2023-08-06T05:42:41;5.53;;;2.28;;
77051;SDS011;65980;44.898;8.602;2023-08-06T05:45:45;3.10;;;1.73;;
77051;SDS011;65980;44.898;8.602;2023-08-06T05:48:52;3.20;;;1.77;;
77051;SDS011;65980;44.898;8.602;2023-08-06T05:51:58;3.90;;;1.70;;
77051;SDS011;65980;44.898;8.602;2023-08-06T05:55:03;2.97;;;1.70;;
77051;SDS011;65980;44.898;8.602;2023-08-06T05:58:07;6.72;;;1.70;;
77051;SDS011;65980;44.898;8.602;2023-08-06T06:01:12;3.40;;;2.38;;
77051;SDS011;65980;44.898;8.602;2023-08-06T06:04:16;7.28;;;1.90;;
77051;SDS011;65980;44.898;8.602;2023-08-06T06:07:21;4.20;;;2.08;;
77051;SDS011;65980;44.898;8.602;2023-08-06T06:10:26;6.20;;;2.00;;
77051;SDS011;65980;44.898;8.602;2023-08-06T06:13:30;3.35;;;1.90;;
77051;SDS011;65980;44.898;8.602;2023-08-06T06:16:34;4.38;;;2.10;;
77051;SDS011;65980;44.898;8.602;2023-08-06T06:19:38;4.15;;;2.20;;
77051;SDS011;65980;44.898;8.602;2023-08-06T06:22:43;6.78;;;2.00;;
77051;SDS011;65980;44.898;8.602;2023-08-06T06:25:48;4.20;;;2.28;;
77051;SDS011;65980;44.898;8.602;2023-08-06T06:28:55;5.05;;;2.25;;
77051;SDS011;65980;44.898;8.602;2023-08-06T06:31:59;4.68;;;2.33;;
77051;SDS011;65980;44.898;8.602;2023-08-06T06:35:03;6.68;;;2.40;;
77051;SDS011;65980;44.898;8.602;2023-08-06T06:38:08;9.18;;;2.20;;
77051;SDS011;65980;44.898;8.602;2023-08-06T06:41:13;2.67;;;1.95;;
77051;SDS011;65980;44.898;8.602;2023-08-06T06:44:18;2.55;;;1.90;;
77051;SDS011;65980;44.898;8.602;2023-08-06T06:47:24;10.38;;;1.90;;
77051;SDS011;65980;44.898;8.602;2023-08-06T06:50:28;6.07;;;2.00;;
77051;SDS011;65980;44.898;8.602;2023-08-06T06:53:33;1.65;;;1.50;;
77051;SDS011;65980;44.898;8.602;2023-08-06T06:56:38;4.32;;;1.58;;
77051;SDS011;65980;44.898;8.602;2023-08-06T06:59:43;2.35;;;1.40;;
77051;SDS011;65980;44.898;8.602;2023-08-06T07:02:48;2.80;;;1.67;;
77051;SDS011;65980;44.898;8.602;2023-08-06T07:05:56;2.97;;;1.23;;
77051;SDS011;65980;44.898;8.602;2023-08-06T07:09:03;3.35;;;1.70;;
77051;SDS011;65980;44.898;8.602;2023-08-06T07:12:07;2.25;;;1.60;;
77051;SDS011;65980;44.898;8.602;2023-08-06T07:15:12;4.22;;;1.38;;
77051;SDS011;65980;44.898;8.602;2023-08-06T07:18:18;1.83;;;1.23;;
77051;SDS011;65980;44.898;8.602;2023-08-06T07:21:22;1.90;;;1.25;;
77051;SDS011;65980;44.898;8.602;2023-08-06T07:24:29;2.42;;;1.38;;
77051;SDS011;65980;44.898;8.602;2023-08-06T07:27:37;3.30;;;1.20;;
77051;SDS011;65980;44.898;8.602;2023-08-06T07:30:42;4.45;;;1.17;;
77051;SDS011;65980;44.898;8.602;2023-08-06T07:33:49;2.47;;;1.20;;
77051;SDS011;65980;44.898;8.602;2023-08-06T07:36:52;2.13;;;1.23;;
77051;SDS011;65980;44.898;8.602;2023-08-06T07:39:57;1.90;;;1.42;;
77051;SDS011;65980;44.898;8.602;2023-08-06T07:43:04;2.05;;;1.10;;
77051;SDS011;65980;44.898;8.602;2023-08-06T07:46:09;1.30;;;1.10;;
77051;SDS011;65980;44.898;8.602;2023-08-06T07:49:15;6.28;;;1.20;;
77051;SDS011;65980;44.898;8.602;2023-08-06T07:52:19;4.45;;;1.02;;
77051;SDS011;65980;44.898;8.602;2023-08-06T07:55:24;2.63;;;1.00;;
77051;SDS011;65980;44.898;8.602;2023-08-06T07:58:28;1.45;;;1.00;;
77051;SDS011;65980;44.898;8.602;2023-08-06T08:01:35;1.95;;;1.00;;
77051;SDS011;65980;44.898;8.602;2023-08-06T08:04:39;1.73;;;1.23;;
77051;SDS011;65980;44.898;8.602;2023-08-06T08:07:43;3.90;;;1.10;;
77051;SDS011;65980;44.898;8.602;2023-08-06T08:10:47;7.28;;;1.30;;
77051;SDS011;65980;44.898;8.602;2023-08-06T08:13:52;2.53;;;1.10;;
77051;SDS011;65980;44.898;8.602;2023-08-06T08:16:55;2.83;;;1.77;;
77051;SDS011;65980;44.898;8.602;2023-08-06T08:20:00;1.95;;;1.00;;
77051;SDS011;65980;44.898;8.602;2023-08-06T08:23:04;1.52;;;1.02;;
77051;SDS011;65980;44.898;8.602;2023-08-06T08:26:09;1.42;;;1.00;;
77051;SDS011;65980;44.898;8.602;2023-08-06T08:29:13;1.60;;;1.05;;
77051;SDS011;65980;44.898;8.602;2023-08-06T08:32:16;1.05;;;0.90;;
77051;SDS011;65980;44.898;8.602;2023-08-06T08:35:21;3.13;;;1.00;;
77051;SDS011;65980;44.898;8.602;2023-08-06T08:38:26;1.60;;;1.05;;
77051;SDS011;65980;44.898;8.602;2023-08-06T08:41:30;1.13;;;0.95;;
77051;SDS011;65980;44.898;8.602;2023-08-06T08:44:36;1.55;;;1.00;;
77051;SDS011;65980;44.898;8.602;2023-08-06T08:47:43;2.38;;;0.90;;
77051;SDS011;65980;44.898;8.602;2023-08-06T08:50:49;0.98;;;0.88;;
77051;SDS011;65980;44.898;8.602;2023-08-06T08:53:55;2.70;;;0.95;;
77051;SDS011;65980;44.898;8.602;2023-08-06T08:57:03;2.03;;;1.00;;
77051;SDS011;65980;44.898;8.602;2023-08-06T09:00:08;6.20;;;1.10;;
77051;SDS011;65980;44.898;8.602;2023-08-06T09:03:13;1.30;;;0.82;;
77051;SDS011;65980;44.898;8.602;2023-08-06T09:06:18;1.20;;;0.80;;
77051;SDS011;65980;44.898;8.602;2023-08-06T09:09:31;1.88;;;0.85;;
77051;SDS011;65980;44.898;8.602;2023-08-06T09:12:37;1.50;;;0.95;;
77051;SDS011;65980;44.898;8.602;2023-08-06T09:15:42;2.28;;;0.80;;
77051;SDS011;65980;44.898;8.602;2023-08-06T09:18:48;2.25;;;0.80;;
77051;SDS011;65980;44.898;8.602;2023-08-06T09:21:52;2.50;;;0.80;;
77051;SDS011;65980;44.898;8.602;2023-08-06T09:24:58;1.27;;;0.90;;
77051;SDS011;65980;44.898;8.602;2023-08-06T09:28:03;1.02;;;0.70;;
77051;SDS011;65980;44.898;8.602;2023-08-06T09:31:08;1.20;;;0.90;;
77051;SDS011;65980;44.898;8.602;2023-08-06T09:34:20;1.00;;;0.85;;
77051;SDS011;65980;44.898;8.602;2023-08-06T09:37:27;3.42;;;1.08;;
77051;SDS011;65980;44.898;8.602;2023-08-06T09:40:40;1.10;;;1.00;;
77051;SDS011;65980;44.898;8.602;2023-08-06T09:43:48;1.48;;;0.90;;
77051;SDS011;65980;44.898;8.602;2023-08-06T09:46:56;1.17;;;0.77;;
77051;SDS011;65980;44.898;8.602;2023-08-06T09:50:01;1.60;;;1.15;;
77051;SDS011;65980;44.898;8.602;2023-08-06T09:53:06;1.30;;;1.10;;
77051;SDS011;65980;44.898;8.602;2023-08-06T09:56:16;1.00;;;0.77;;
77051;SDS011;65980;44.898;8.602;2023-08-06T09:59:25;1.17;;;0.82;;
77051;SDS011;65980;44.898;8.602;2023-08-06T10:02:30;0.90;;;0.80;;
77051;SDS011;65980;44.898;8.602;2023-08-06T10:05:37;1.77;;;0.90;;
77051;SDS011;65980;44.898;8.602;2023-08-06T10:08:45;1.33;;;0.90;;
77051;SDS011;65980;44.898;8.602;2023-08-06T10:11:51;1.63;;;0.90;;
77051;SDS011;65980;44.898;8.602;2023-08-06T10:14:57;1.65;;;1.00;;
77051;SDS011;65980;44.898;8.602;2023-08-06T10:18:05;1.85;;;0.90;;
77051;SDS011;65980;44.898;8.602;2023-08-06T10:21:10;1.60;;;0.80;;
77051;SDS011;65980;44.898;8.602;2023-08-06T10:24:15;0.93;;;0.82;;
77051;SDS011;65980;44.898;8.602;2023-08-06T10:27:27;2.00;;;0.98;;
77051;SDS011;65980;44.898;8.602;2023-08-06T10:30:32;1.63;;;0.70;;
77051;SDS011;65980;44.898;8.602;2023-08-06T10:33:40;0.85;;;0.80;;
77051;SDS011;65980;44.898;8.602;2023-08-06T10:36:46;2.08;;;0.82;;
77051;SDS011;65980;44.898;8.602;2023-08-06T10:39:51;1.63;;;0.85;;
77051;SDS011;65980;44.898;8.602;2023-08-06T10:42:58;1.48;;;0.80;;
77051;SDS011;65980;44.898;8.602;2023-08-06T10:46:09;1.58;;;0.82;;
77051;SDS011;65980;44.898;8.602;2023-08-06T10:49:13;0.95;;;0.70;;
77051;SDS011;65980;44.898;8.602;2023-08-06T10:52:21;1.48;;;0.85;;
77051;SDS011;65980;44.898;8.602;2023-08-06T10:55:27;0.98;;;0.70;;
77051;SDS011;65980;44.898;8.602;2023-08-06T10:58:33;1.02;;;0.80;;
77051;SDS011;65980;44.898;8.602;2023-08-06T11:01:38;1.25;;;0.85;;
77051;SDS011;65980;44.898;8.602;2023-08-06T11:04:43;2.35;;;0.88;;
77051;SDS011;65980;44.898;8.602;2023-08-06T11:07:51;1.38;;;0.80;;
77051;SDS011;65980;44.898;8.602;2023-08-06T11:11:07;1.25;;;0.80;;
77051;SDS011;65980;44.898;8.602;2023-08-06T11:14:16;2.45;;;0.95;;
77051;SDS011;65980;44.898;8.602;2023-08-06T11:17:21;1.85;;;0.90;;
77051;SDS011;65980;44.898;8.602;2023-08-06T11:20:26;2.05;;;0.90;;
77051;SDS011;65980;44.898;8.602;2023-08-06T11:23:30;1.30;;;0.80;;
77051;SDS011;65980;44.898;8.602;2023-08-06T11:26:34;1.52;;;0.80;;
77051;SDS011;65980;44.898;8.602;2023-08-06T11:29:41;1.73;;;0.73;;
77051;SDS011;65980;44.898;8.602;2023-08-06T11:32:46;1.08;;;0.70;;
77051;SDS011;65980;44.898;8.602;2023-08-06T11:35:52;1.65;;;0.85;;
77051;SDS011;65980;44.898;8.602;2023-08-06T11:38:58;0.98;;;0.80;;
77051;SDS011;65980;44.898;8.602;2023-08-06T11:42:03;1.67;;;0.90;;
77051;SDS011;65980;44.898;8.602;2023-08-06T11:45:10;1.83;;;0.80;;
77051;SDS011;65980;44.898;8.602;2023-08-06T11:48:15;2.65;;;0.75;;
77051;SDS011;65980;44.898;8.602;2023-08-06T11:51:22;2.83;;;0.73;;
77051;SDS011;65980;44.898;8.602;2023-08-06T11:54:32;1.00;;;0.88;;
77051;SDS011;65980;44.898;8.602;2023-08-06T11:57:44;1.00;;;0.80;;
77051;SDS011;65980;44.898;8.602;2023-08-06T12:00:49;1.80;;;0.68;;
77051;SDS011;65980;44.898;8.602;2023-08-06T12:03:58;0.90;;;0.80;;
77051;SDS011;65980;44.898;8.602;2023-08-06T12:07:06;1.25;;;0.80;;
77051;SDS011;65980;44.898;8.602;2023-08-06T12:10:14;1.88;;;0.80;;
77051;SDS011;65980;44.898;8.602;2023-08-06T12:13:20;1.23;;;0.75;;
77051;SDS011;65980;44.898;8.602;2023-08-06T12:16:25;1.10;;;0.77;;
77051;SDS011;65980;44.898;8.602;2023-08-06T12:19:30;1.10;;;0.75;;
77051;SDS011;65980;44.898;8.602;2023-08-06T12:22:34;1.33;;;0.77;;
77051;SDS011;65980;44.898;8.602;2023-08-06T12:25:40;0.90;;;0.70;;
77051;SDS011;65980;44.898;8.602;2023-08-06T12:28:43;0.90;;;0.70;;
77051;SDS011;65980;44.898;8.602;2023-08-06T12:31:48;1.30;;;0.70;;
77051;SDS011;65980;44.898;8.602;2023-08-06T12:34:53;1.55;;;0.90;;
77051;SDS011;65980;44.898;8.602;2023-08-06T12:37:56;1.10;;;0.73;;
77051;SDS011;65980;44.898;8.602;2023-08-06T12:41:01;2.38;;;0.90;;
77051;SDS011;65980;44.898;8.602;2023-08-06T12:44:06;2.33;;;0.82;;
77051;SDS011;65980;44.898;8.602;2023-08-06T12:47:11;1.25;;;0.80;;
77051;SDS011;65980;44.898;8.602;2023-08-06T12:50:16;0.90;;;0.80;;
77051;SDS011;65980;44.898;8.602;2023-08-06T12:53:20;1.67;;;0.70;;
77051;SDS011;65980;44.898;8.602;2023-08-06T12:56:27;3.10;;;0.82;;
77051;SDS011;65980;44.898;8.602;2023-08-06T12:59:32;1.25;;;0.80;;
77051;SDS011;65980;44.898;8.602;2023-08-06T13:02:37;0.73;;;0.70;;
77051;SDS011;65980;44.898;8.602;2023-08-06T13:05:41;0.85;;;0.70;;
77051;SDS011;65980;44.898;8.602;2023-08-06T13:08:46;0.95;;;0.68;;
77051;SDS011;65980;44.898;8.602;2023-08-06T13:11:53;1.30;;;0.80;;
77051;SDS011;65980;44.898;8.602;2023-08-06T13:14:57;2.05;;;0.80;;
77051;SDS011;65980;44.898;8.602;2023-08-06T13:18:02;2.13;;;0.80;;
77051;SDS011;65980;44.898;8.602;2023-08-06T13:21:07;1.90;;;0.82;;
77051;SDS011;65980;44.898;8.602;2023-08-06T13:24:11;1.13;;;0.80;;
77051;SDS011;65980;44.898;8.602;2023-08-06T13:27:16;1.00;;;0.80;;
77051;SDS011;65980;44.898;8.602;2023-08-06T13:30:20;2.13;;;1.10;;
77051;SDS011;65980;44.898;8.602;2023-08-06T13:33:27;1.92;;;0.90;;
77051;SDS011;65980;44.898;8.602;2023-08-06T13:36:32;2.13;;;1.10;;
77051;SDS011;65980;44.898;8.602;2023-08-06T13:39:37;2.22;;;0.90;;
77051;SDS011;65980;44.898;8.602;2023-08-06T13:42:40;1.15;;;0.80;;
77051;SDS011;65980;44.898;8.602;2023-08-06T13:45:46;2.25;;;0.80;;
77051;SDS011;65980;44.898;8.602;2023-08-06T13:48:51;2.97;;;0.85;;
77051;SDS011;65980;44.898;8.602;2023-08-06T13:51:56;0.93;;;0.70;;
77051;SDS011;65980;44.898;8.602;2023-08-06T13:55:04;0.95;;;0.70;;
77051;SDS011;65980;44.898;8.602;2023-08-06T13:58:09;2.80;;;0.80;;
77051;SDS011;65980;44.898;8.602;2023-08-06T14:01:13;1.85;;;0.85;;
77051;SDS011;65980;44.898;8.602;2023-08-06T14:04:23;1.52;;;0.70;;
77051;SDS011;65980;44.898;8.602;2023-08-06T14:07:27;2.83;;;0.90;;
77051;SDS011;65980;44.898;8.602;2023-08-06T14:10:31;6.53;;;0.90;;
77051;SDS011;65980;44.898;8.602;2023-08-06T14:13:36;2.05;;;0.68;;
77051;SDS011;65980;44.898;8.602;2023-08-06T14:16:43;2.20;;;0.80;;
77051;SDS011;65980;44.898;8.602;2023-08-06T14:19:47;1.15;;;0.75;;
77051;SDS011;65980;44.898;8.602;2023-08-06T14:22:51;2.08;;;0.70;;
77051;SDS011;65980;44.898;8.602;2023-08-06T14:25:55;0.98;;;0.65;;
77051;SDS011;65980;44.898;8.602;2023-08-06T14:29:00;1.75;;;0.70;;
77051;SDS011;65980;44.898;8.602;2023-08-06T14:32:06;2.05;;;0.93;;
77051;SDS011;65980;44.898;8.602;2023-08-06T14:35:11;3.42;;;0.70;;
77051;SDS011;65980;44.898;8.602;2023-08-06T14:38:15;3.85;;;0.82;;
77051;SDS011;65980;44.898;8.602;2023-08-06T14:41:19;1.10;;;0.70;;
77051;SDS011;65980;44.898;8.602;2023-08-06T14:44:23;0.90;;;0.80;;
77051;SDS011;65980;44.898;8.602;2023-08-06T14:47:27;1.38;;;0.70;;
77051;SDS011;65980;44.898;8.602;2023-08-06T14:50:32;1.40;;;0.85;;
77051;SDS011;65980;44.898;8.602;2023-08-06T14:53:36;1.10;;;0.80;;
77051;SDS011;65980;44.898;8.602;2023-08-06T14:56:40;0.82;;;0.70;;
77051;SDS011;65980;44.898;8.602;2023-08-06T14:59:44;2.78;;;0.90;;
77051;SDS011;65980;44.898;8.602;2023-08-06T15:02:53;1.08;;;0.70;;
77051;SDS011;65980;44.898;8.602;2023-08-06T15:05:57;1.13;;;0.82;;
77051;SDS011;65980;44.898;8.602;2023-08-06T15:09:01;1.77;;;0.80;;
77051;SDS011;65980;44.898;8.602;2023-08-06T15:12:05;0.90;;;0.70;;
77051;SDS011;65980;44.898;8.602;2023-08-06T15:15:10;1.65;;;0.80;;
77051;SDS011;65980;44.898;8.602;2023-08-06T15:18:14;1.65;;;0.70;;
77051;SDS011;65980;44.898;8.602;2023-08-06T15:21:18;1.35;;;0.80;;
77051;SDS011;65980;44.898;8.602;2023-08-06T15:24:22;1.00;;;0.70;;
77051;SDS011;65980;44.898;8.602;2023-08-06T15:27:26;0.88;;;0.60;;
77051;SDS011;65980;44.898;8.602;2023-08-06T15:30:31;1.40;;;0.80;;
77051;SDS011;65980;44.898;8.602;2023-08-06T15:33:36;2.90;;;0.90;;
77051;SDS011;65980;44.898;8.602;2023-08-06T15:36:41;1.83;;;0.63;;
77051;SDS011;65980;44.898;8.602;2023-08-06T15:39:45;0.80;;;0.60;;
77051;SDS011;65980;44.898;8.602;2023-08-06T15:42:50;1.08;;;0.90;;
77051;SDS011;65980;44.898;8.602;2023-08-06T15:45:55;1.60;;;0.60;;
77051;SDS011;65980;44.898;8.602;2023-08-06T15:48:59;1.85;;;0.80;;
77051;SDS011;65980;44.898;8.602;2023-08-06T15:52:03;0.80;;;0.70;;
77051;SDS011;65980;44.898;8.602;2023-08-06T15:55:09;0.80;;;0.70;;
77051;SDS011;65980;44.898;8.602;2023-08-06T15:58:13;1.15;;;0.70;;
77051;SDS011;65980;44.898;8.602;2023-08-06T16:01:19;1.38;;;0.80;;
77051;SDS011;65980;44.898;8.602;2023-08-06T16:04:28;1.05;;;0.80;;
77051;SDS011;65980;44.898;8.602;2023-08-06T16:07:33;1.65;;;0.90;;
77051;SDS011;65980;44.898;8.602;2023-08-06T16:10:41;3.53;;;0.95;;
77051;SDS011;65980;44.898;8.602;2023-08-06T16:13:48;1.10;;;0.80;;
77051;SDS011;65980;44.898;8.602;2023-08-06T16:16:52;5.75;;;0.90;;
77051;SDS011;65980;44.898;8.602;2023-08-06T16:19:56;1.20;;;0.80;;
77051;SDS011;65980;44.898;8.602;2023-08-06T16:23:00;11.98;;;0.80;;
77051;SDS011;65980;44.898;8.602;2023-08-06T16:26:06;2.50;;;0.70;;
77051;SDS011;65980;44.898;8.602;2023-08-06T16:29:10;2.05;;;1.00;;
77051;SDS011;65980;44.898;8.602;2023-08-06T16:32:14;3.75;;;0.88;;
77051;SDS011;65980;44.898;8.602;2023-08-06T16:35:18;7.03;;;0.90;;
77051;SDS011;65980;44.898;8.602;2023-08-06T16:38:22;1.15;;;0.63;;
77051;SDS011;65980;44.898;8.602;2023-08-06T16:41:27;1.20;;;0.80;;
77051;SDS011;65980;44.898;8.602;2023-08-06T16:44:31;1.00;;;0.60;;
77051;SDS011;65980;44.898;8.602;2023-08-06T16:47:35;2.17;;;0.80;;
77051;SDS011;65980;44.898;8.602;2023-08-06T16:50:39;1.95;;;0.80;;
77051;SDS011;65980;44.898;8.602;2023-08-06T16:53:44;5.35;;;1.25;;
77051;SDS011;65980;44.898;8.602;2023-08-06T16:56:48;0.90;;;0.80;;
77051;SDS011;65980;44.898;8.602;2023-08-06T16:59:52;7.32;;;1.00;;
77051;SDS011;65980;44.898;8.602;2023-08-06T17:02:56;2.80;;;0.70;;
77051;SDS011;65980;44.898;8.602;2023-08-06T17:06:01;1.73;;;0.70;;
77051;SDS011;65980;44.898;8.602;2023-08-06T17:09:06;1.23;;;0.80;;
77051;SDS011;65980;44.898;8.602;2023-08-06T17:12:10;1.10;;;0.90;;
77051;SDS011;65980;44.898;8.602;2023-08-06T17:15:14;1.58;;;1.17;;
77051;SDS011;65980;44.898;8.602;2023-08-06T17:18:18;2.03;;;0.77;;
77051;SDS011;65980;44.898;8.602;2023-08-06T17:21:22;1.08;;;0.75;;
77051;SDS011;65980;44.898;8.602;2023-08-06T17:24:26;1.00;;;0.70;;
77051;SDS011;65980;44.898;8.602;2023-08-06T17:27:30;2.20;;;0.90;;
77051;SDS011;65980;44.898;8.602;2023-08-06T17:30:35;4.38;;;0.73;;
77051;SDS011;65980;44.898;8.602;2023-08-06T17:33:39;1.15;;;0.80;;
77051;SDS011;65980;44.898;8.602;2023-08-06T17:36:43;1.23;;;0.90;;
77051;SDS011;65980;44.898;8.602;2023-08-06T17:39:47;0.98;;;0.70;;
77051;SDS011;65980;44.898;8.602;2023-08-06T17:42:51;2.17;;;0.80;;
77051;SDS011;65980;44.898;8.602;2023-08-06T17:45:56;0.95;;;0.70;;
77051;SDS011;65980;44.898;8.602;2023-08-06T17:49:01;1.05;;;0.70;;
77051;SDS011;65980;44.898;8.602;2023-08-06T17:52:06;1.08;;;0.77;;
77051;SDS011;65980;44.898;8.602;2023-08-06T17:55:11;1.42;;;0.70;;
77051;SDS011;65980;44.898;8.602;2023-08-06T17:58:16;1.10;;;0.80;;
77051;SDS011;65980;44.898;8.602;2023-08-06T18:01:20;1.38;;;0.90;;
77051;SDS011;65980;44.898;8.602;2023-08-06T18:04:24;1.27;;;0.70;;
77051;SDS011;65980;44.898;8.602;2023-08-06T18:07:29;1.13;;;0.80;;
77051;SDS011;65980;44.898;8.602;2023-08-06T18:10:35;1.83;;;1.00;;
77051;SDS011;65980;44.898;8.602;2023-08-06T18:13:39;1.65;;;0.80;;
77051;SDS011;65980;44.898;8.602;2023-08-06T18:16:43;5.05;;;1.20;;
77051;SDS011;65980;44.898;8.602;2023-08-06T18:19:47;4.28;;;1.40;;
77051;SDS011;65980;44.898;8.602;2023-08-06T18:22:51;7.93;;;1.42;;
77051;SDS011;65980;44.898;8.602;2023-08-06T18:25:55;4.93;;;1.75;;
77051;SDS011;65980;44.898;8.602;2023-08-06T18:29:02;5.35;;;1.48;;
77051;SDS011;65980;44.898;8.602;2023-08-06T18:32:06;4.40;;;1.55;;
77051;SDS011;65980;44.898;8.602;2023-08-06T18:35:10;6.38;;;1.80;;
77051;SDS011;65980;44.898;8.602;2023-08-06T18:38:15;8.93;;;1.80;;
77051;SDS011;65980;44.898;8.602;2023-08-06T18:41:19;6.40;;;1.90;;
77051;SDS011;65980;44.898;8.602;2023-08-06T18:44:23;5.60;;;1.70;;
77051;SDS011;65980;44.898;8.602;2023-08-06T18:47:27;6.65;;;1.60;;